Time;durP1;ratioP1;P1;durP2;ratioP2;P2;SDS_P1;SDS_P2;PMS_P1;PMS_P2;Temp;Humidity;BMP_temperature;BMP_pressure;BME280_temperature;BME280_humidity;BME280_pressure;Samples;Min_cycle;Max_cycle;Signal;HPM_P1;HPM_P2
2021/06/25 00:02:07;;;;;;;6.67;4.55;;;;;;;18.75;84.38;96414.80;1653859;86;20962;-80
2021/06/25 00:04:32;;;;;;;4.40;3.90;;;;;;;18.75;84.28;96410.06;1641011;85;21053;-80
2021/06/25 00:06:59;;;;;;;5.65;3.35;;;;;;;18.77;84.44;96407.48;1651546;85;21043;-80
2021/06/25 00:09:24;;;;;;;6.92;4.40;;;;;;;18.82;84.45;96412.83;1664231;85;20983;-80
2021/06/25 00:11:50;;;;;;;5.58;3.80;;;;;;;18.81;84.46;96412.55;1646846;85;20975;-79
2021/06/25 00:14:22;;;;;;;5.00;4.00;;;;;;;18.85;84.48;96412.88;1637748;85;21029;-80
2021/06/25 00:16:49;;;;;;;5.92;3.95;;;;;;;18.87;84.69;96405.55;1650453;86;20969;-79
2021/06/25 00:19:15;;;;;;;5.28;4.03;;;;;;;18.87;84.46;96410.81;1660801;86;20945;-80
2021/06/25 00:21:41;;;;;;;6.65;4.12;;;;;;;18.89;84.51;96414.03;1654308;85;20981;-80
2021/06/25 00:24:07;;;;;;;8.03;4.35;;;;;;;18.87;84.22;96414.76;1669252;85;21346;-79
2021/06/25 00:26:33;;;;;;;4.47;3.85;;;;;;;18.83;84.48;96397.84;1669187;85;20974;-80
2021/06/25 00:28:58;;;;;;;6.33;4.80;;;;;;;18.84;84.20;96388.91;1620264;86;20990;-80
2021/06/25 00:31:24;;;;;;;5.60;3.45;;;;;;;18.83;84.33;96371.52;1637252;86;20899;-79
2021/06/25 00:33:50;;;;;;;4.45;3.35;;;;;;;18.79;83.39;96361.17;1639239;86;21009;-80
2021/06/25 00:36:15;;;;;;;4.80;3.42;;;;;;;18.76;83.85;96369.55;1658401;85;21051;-80
2021/06/25 00:38:42;;;;;;;5.45;3.75;;;;;;;18.74;83.72;96371.61;1660992;85;21028;-79
2021/06/25 00:41:07;;;;;;;4.95;2.50;;;;;;;18.71;83.88;96381.27;1668917;85;21278;-80
2021/06/25 00:43:33;;;;;;;3.83;2.60;;;;;;;18.67;83.06;96377.50;1656990;85;20940;-80
2021/06/25 00:45:59;;;;;;;5.60;3.00;;;;;;;18.63;82.64;96385.56;1659559;85;21343;-79
2021/06/25 00:48:26;;;;;;;4.58;3.20;;;;;;;18.63;82.99;96394.77;1661098;85;20988;-80
2021/06/25 00:50:51;;;;;;;5.58;3.08;;;;;;;18.63;83.30;96381.13;1669458;85;20906;-80
2021/06/25 00:53:17;;;;;;;5.30;2.77;;;;;;;18.63;83.30;96390.34;1640859;86;20942;-79
2021/06/25 00:55:43;;;;;;;5.65;2.80;;;;;;;18.56;83.31;96406.23;1674857;85;21266;-79
2021/06/25 00:58:13;;;;;;;3.87;2.98;;;;;;;18.57;83.38;96424.13;1650797;85;20938;-79
2021/06/25 01:00:39;;;;;;;4.97;2.60;;;;;;;18.56;83.59;96429.91;1611044;88;21409;-80
2021/06/25 01:03:05;;;;;;;7.22;2.70;;;;;;;18.58;83.67;96436.26;1645277;85;20933;-79
2021/06/25 01:05:31;;;;;;;5.47;3.00;;;;;;;18.57;83.88;96423.62;1666338;85;21343;-80
2021/06/25 01:07:58;;;;;;;5.78;2.90;;;;;;;18.56;83.99;96419.39;1674305;85;20949;-80
2021/06/25 01:10:23;;;;;;;5.85;3.72;;;;;;;18.55;84.15;96407.78;1638224;86;21279;-80
2021/06/25 01:12:49;;;;;;;4.75;3.22;;;;;;;18.50;84.19;96386.60;1607047;88;21041;-80
2021/06/25 01:15:15;;;;;;;5.37;3.05;;;;;;;18.51;84.29;96371.09;1643249;85;20984;-79
2021/06/25 01:17:43;;;;;;;5.15;3.50;;;;;;;18.50;83.89;96369.50;1654991;85;20981;-80
2021/06/25 01:20:16;;;;;;;7.33;3.67;;;;;;;18.44;83.58;96365.97;1655004;85;21004;-80
2021/06/25 01:22:42;;;;;;;6.12;3.45;;;;;;;18.45;83.87;96384.67;1666511;85;20993;-80
2021/06/25 01:25:23;;;;;;;5.28;3.17;;;;;;;18.45;83.90;96400.45;1620862;86;21347;-80
2021/06/25 01:27:52;;;;;;;4.93;3.10;;;;;;;18.42;83.81;96408.81;1658691;85;20946;-80
2021/06/25 01:30:25;;;;;;;4.97;2.33;;;;;;;18.39;83.71;96434.27;1654644;86;20988;-80
2021/06/25 01:32:51;;;;;;;6.17;2.85;;;;;;;18.37;83.56;96441.56;1661216;85;21008;-79
2021/06/25 01:35:17;;;;;;;6.47;2.90;;;;;;;18.36;83.82;96443.91;1657453;86;21025;-80
2021/06/25 01:37:44;;;;;;;5.10;2.70;;;;;;;18.39;83.82;96444.00;1647892;85;21017;-80
2021/06/25 01:40:12;;;;;;;5.67;2.90;;;;;;;18.38;83.90;96447.11;1646520;85;21355;-79
2021/06/25 01:42:40;;;;;;;4.42;2.95;;;;;;;18.37;84.00;96440.77;1637297;86;20966;-80
2021/06/25 01:45:10;;;;;;;4.28;3.22;;;;;;;18.33;83.96;96425.97;1630758;87;20997;-80
2021/06/25 01:47:36;;;;;;;5.53;2.98;;;;;;;18.30;84.12;96410.64;1648292;85;21018;-80
2021/06/25 01:50:09;;;;;;;6.05;2.77;;;;;;;18.32;84.33;96398.06;1642795;85;21325;-80
2021/06/25 01:52:35;;;;;;;4.83;2.70;;;;;;;18.35;84.39;96391.02;1645175;85;20938;-80
2021/06/25 01:55:00;;;;;;;3.83;2.92;;;;;;;18.35;84.25;96373.92;1650974;86;20984;-79
2021/06/25 01:57:26;;;;;;;4.80;3.20;;;;;;;18.32;84.14;96379.65;1666782;85;21057;-80
2021/06/25 01:59:52;;;;;;;4.80;3.58;;;;;;;18.34;84.19;96399.95;1661493;85;21396;-80
2021/06/25 02:02:18;;;;;;;8.43;4.08;;;;;;;18.38;84.04;96474.73;1622430;86;20982;-79
2021/06/25 02:04:43;;;;;;;7.28;4.45;;;;;;;18.37;84.22;96566.52;1650172;85;21040;-80
2021/06/25 02:07:09;;;;;;;7.03;5.37;;;;;;;18.26;84.96;96589.67;1664856;85;20968;-80
2021/06/25 02:09:35;;;;;;;9.00;5.08;;;;;;;18.11;85.37;96551.95;1669243;85;20946;-80
2021/06/25 02:12:01;;;;;;;8.35;5.22;;;;;;;18.05;85.91;96474.47;1640734;86;20954;-80
2021/06/25 02:14:27;;;;;;;6.30;4.72;;;;;;;18.00;85.77;96426.00;1636384;86;21354;-79
2021/06/25 02:16:53;;;;;;;6.95;4.72;;;;;;;18.00;85.79;96416.80;1667710;85;21019;-80
2021/06/25 02:19:19;;;;;;;6.60;4.55;;;;;;;18.04;85.89;96418.97;1677499;84;20933;-79
2021/06/25 02:21:44;;;;;;;8.00;4.42;;;;;;;18.08;85.87;96412.25;1676586;84;20967;-80
2021/06/25 02:24:10;;;;;;;9.03;5.03;;;;;;;18.10;85.75;96412.31;1677635;84;20961;-80
2021/06/25 02:26:36;;;;;;;5.00;3.65;;;;;;;18.09;85.90;96400.19;1677488;84;20929;-80
2021/06/25 02:29:02;;;;;;;5.80;3.42;;;;;;;18.12;86.09;96383.16;1663472;85;20967;-80
2021/06/25 02:31:27;;;;;;;4.72;3.08;;;;;;;18.14;86.06;96388.47;1636954;86;21308;-80
2021/06/25 02:33:53;;;;;;;4.95;2.45;;;;;;;18.15;85.62;96376.12;1639905;86;20938;-80
2021/06/25 02:36:19;;;;;;;3.52;2.37;;;;;;;18.17;85.42;96371.42;1638378;86;20988;-80
2021/06/25 02:38:45;;;;;;;4.85;2.80;;;;;;;18.17;85.12;96351.70;1641952;86;21266;-80
2021/06/25 02:41:10;;;;;;;4.70;2.72;;;;;;;18.13;85.32;96329.02;1641991;86;20946;-80
2021/06/25 02:43:36;;;;;;;5.42;2.25;;;;;;;18.13;85.21;96333.48;1642343;86;20969;-80
2021/06/25 02:46:02;;;;;;;5.40;1.90;;;;;;;18.09;85.25;96325.77;1629019;86;21096;-80
2021/06/25 02:48:28;;;;;;;2.47;1.32;;;;;;;18.00;84.87;96323.48;1664412;85;21298;-79
2021/06/25 02:50:54;;;;;;;3.58;1.15;;;;;;;17.89;84.78;96325.58;1638790;86;20987;-80
2021/06/25 02:53:19;;;;;;;4.67;1.32;;;;;;;17.90;84.35;96333.78;1655967;85;20946;-80
2021/06/25 02:55:51;;;;;;;4.58;3.27;;;;;;;17.89;84.67;96333.98;1668029;85;22020;-80
2021/06/25 02:58:21;;;;;;;4.45;2.55;;;;;;;17.84;84.50;96332.56;1651692;85;21350;-80
2021/06/25 03:00:49;;;;;;;4.87;2.42;;;;;;;17.87;85.10;96329.47;1673126;84;21105;-79
2021/06/25 03:03:14;;;;;;;5.33;2.72;;;;;;;17.90;85.25;96337.73;1694857;83;21014;-79
2021/06/25 03:05:40;;;;;;;4.90;3.60;;;;;;;17.96;85.43;96342.58;1693767;83;21009;-80
2021/06/25 03:08:06;;;;;;;8.30;3.25;;;;;;;18.04;85.44;96341.41;1672391;85;20949;-79
2021/06/25 03:10:32;;;;;;;5.58;3.22;;;;;;;18.06;85.68;96347.23;1695912;83;21319;-80
2021/06/25 03:12:57;;;;;;;6.20;3.30;;;;;;;17.98;85.42;96349.72;1695989;83;20940;-80
2021/06/25 03:15:23;;;;;;;4.95;2.98;;;;;;;17.97;85.65;96342.86;1695847;83;20944;-80
2021/06/25 03:17:49;;;;;;;6.33;3.58;;;;;;;17.92;85.93;96335.66;1696136;85;21312;-80
2021/06/25 03:20:15;;;;;;;8.23;3.30;;;;;;;17.86;85.71;96344.96;1696561;84;20976;-80
2021/06/25 03:22:41;;;;;;;6.17;3.77;;;;;;;17.89;85.98;96342.67;1695207;83;20893;-80
2021/06/25 03:25:08;;;;;;;6.37;4.25;;;;;;;17.94;86.12;96334.92;1676526;85;21018;-80
2021/06/25 03:27:35;;;;;;;5.97;4.37;;;;;;;17.98;86.26;96328.16;1677140;84;20978;-80
2021/06/25 03:30:01;;;;;;;8.55;4.35;;;;;;;17.98;86.36;96322.11;1683356;84;21061;-80
2021/06/25 03:32:26;;;;;;;6.60;3.75;;;;;;;17.98;86.44;96335.25;1683803;84;20920;-79
2021/06/25 03:34:52;;;;;;;7.25;4.90;;;;;;;17.99;86.30;96339.48;1688057;84;20885;-80
2021/06/25 03:37:18;;;;;;;6.58;4.75;;;;;;;18.01;86.39;96341.36;1696265;83;20890;-79
2021/06/25 03:39:44;;;;;;;8.08;4.47;;;;;;;18.05;86.44;96335.13;1677080;84;20979;-80
2021/06/25 03:42:10;;;;;;;7.08;4.10;;;;;;;18.13;86.69;96343.99;1678993;84;20928;-80
2021/06/25 03:44:35;;;;;;;7.83;4.20;;;;;;;18.19;86.76;96339.12;1678448;85;20934;-80
2021/06/25 03:47:03;;;;;;;5.90;4.25;;;;;;;18.25;86.58;96348.73;1678221;84;21078;-80
2021/06/25 03:49:29;;;;;;;8.68;4.20;;;;;;;18.26;86.52;96347.19;1695538;83;20941;-80
2021/06/25 03:51:55;;;;;;;5.42;3.87;;;;;;;18.32;86.70;96352.03;1678682;85;20931;-80
2021/06/25 03:54:20;;;;;;;3.92;3.47;;;;;;;18.36;86.43;96345.78;1686525;84;20924;-80
2021/06/25 03:56:46;;;;;;;7.90;4.08;;;;;;;18.42;86.48;96358.83;1686751;84;20943;-80
2021/06/25 03:59:12;;;;;;;7.67;3.92;;;;;;;18.45;86.41;96351.78;1686832;84;21043;-80
2021/06/25 04:01:38;;;;;;;8.30;4.03;;;;;;;18.50;86.36;96365.04;1669057;84;20996;-80
2021/06/25 04:04:04;;;;;;;7.72;3.75;;;;;;;18.49;86.14;96363.44;1660784;84;20997;-80
2021/06/25 04:06:30;;;;;;;5.80;3.42;;;;;;;18.49;86.42;96358.17;1651402;85;21311;-80
2021/06/25 04:08:55;;;;;;;7.55;2.92;;;;;;;18.53;86.35;96357.19;1661263;85;20967;-80
2021/06/25 04:11:21;;;;;;;7.47;2.92;;;;;;;18.56;86.25;96353.61;1663178;84;20955;-80
2021/06/25 04:13:47;;;;;;;3.98;2.95;;;;;;;18.62;86.54;96360.28;1675294;85;21393;-80
2021/06/25 04:16:13;;;;;;;6.67;2.60;;;;;;;18.64;86.31;96352.98;1667054;85;21312;-79
2021/06/25 04:18:39;;;;;;;3.33;2.20;;;;;;;18.71;86.40;96357.58;1668538;85;21004;-80
2021/06/25 04:21:05;;;;;;;5.58;3.00;;;;;;;18.80;86.32;96354.36;1669745;85;20898;-80
2021/06/25 04:23:30;;;;;;;5.90;4.20;;;;;;;18.81;85.94;96355.95;1633084;86;20953;-80
2021/06/25 04:25:56;;;;;;;6.25;4.55;;;;;;;18.76;85.43;96369.55;1677447;84;20941;-80
2021/06/25 04:28:22;;;;;;;5.25;4.15;;;;;;;18.75;85.42;96359.53;1642036;86;20928;-80
2021/06/25 04:30:49;;;;;;;7.20;3.92;;;;;;;18.73;85.06;96353.70;1668832;85;21071;-80
2021/06/25 04:33:15;;;;;;;8.98;3.83;;;;;;;18.76;85.43;96346.66;1668020;84;21000;-80
2021/06/25 04:35:42;;;;;;;6.75;3.72;;;;;;;18.80;85.53;96350.41;1669505;84;20964;-80
2021/06/25 04:38:10;;;;;;;6.85;3.85;;;;;;;18.82;85.43;96349.66;1668925;85;20986;-80
2021/06/25 04:40:38;;;;;;;4.40;3.00;;;;;;;18.86;85.40;96359.19;1637098;86;20993;-79
2021/06/25 04:43:06;;;;;;;7.03;3.12;;;;;;;18.85;85.44;96372.87;1670081;84;21273;-80
2021/06/25 04:45:35;;;;;;;7.00;3.52;;;;;;;18.89;85.61;96374.55;1668754;85;21334;-79
2021/06/25 04:48:04;;;;;;;6.37;3.45;;;;;;;18.96;85.64;96383.09;1637136;86;20993;-80
2021/06/25 04:50:31;;;;;;;6.47;4.55;;;;;;;18.99;85.52;96373.92;1634662;86;21256;-80
2021/06/25 04:52:57;;;;;;;10.38;5.03;;;;;;;19.01;85.20;96385.81;1663078;85;21065;-80
2021/06/25 04:55:23;;;;;;;6.08;5.00;;;;;;;19.07;85.21;96386.21;1669369;85;21001;-80
2021/06/25 04:57:51;;;;;;;5.87;5.28;;;;;;;19.13;85.05;96378.67;1623004;86;21088;-80
2021/06/25 05:00:18;;;;;;;8.68;6.05;;;;;;;19.11;83.98;96375.48;1674573;84;20960;-80
2021/06/25 05:02:43;;;;;;;8.00;6.10;;;;;;;19.06;84.53;96378.03;1669317;84;20974;-80
2021/06/25 05:05:10;;;;;;;7.55;5.30;;;;;;;19.06;84.63;96374.08;1619317;86;21060;-80
2021/06/25 05:07:36;;;;;;;4.97;4.47;;;;;;;19.09;85.04;96379.39;1662304;85;20950;-79
2021/06/25 05:10:02;;;;;;;5.92;5.22;;;;;;;19.09;84.21;96381.51;1657418;86;20935;-80
2021/06/25 05:12:28;;;;;;;7.08;6.33;;;;;;;19.04;84.22;96375.36;1665463;85;21297;-79
2021/06/25 05:14:54;;;;;;;7.78;5.67;;;;;;;19.05;84.14;96379.59;1659623;84;20959;-79
2021/06/25 05:17:20;;;;;;;7.85;6.15;;;;;;;19.08;83.80;96388.33;1640578;86;20991;-80
2021/06/25 05:19:46;;;;;;;8.18;6.08;;;;;;;19.09;84.21;96381.51;1655569;85;21410;-80
2021/06/25 05:22:11;;;;;;;6.90;6.30;;;;;;;19.13;83.93;96390.53;1649252;85;21036;-80
2021/06/25 05:24:37;;;;;;;9.38;6.53;;;;;;;19.11;83.42;96397.07;1653980;85;21096;-80
2021/06/25 05:27:04;;;;;;;8.73;6.28;;;;;;;19.09;83.05;96389.41;1661989;85;20934;-80
2021/06/25 05:29:29;;;;;;;7.42;5.83;;;;;;;19.12;83.41;96390.25;1669122;85;20939;-80
2021/06/25 05:31:55;;;;;;;8.38;5.67;;;;;;;19.23;83.60;96396.52;1656759;85;21001;-80
2021/06/25 05:34:21;;;;;;;5.83;5.10;;;;;;;19.32;83.51;96391.66;1662896;85;20993;-80
2021/06/25 05:36:47;;;;;;;6.60;5.50;;;;;;;19.37;83.19;96389.92;1649486;85;20936;-80
2021/06/25 05:39:13;;;;;;;6.35;5.75;;;;;;;19.38;83.02;96393.36;1667179;85;20990;-80
2021/06/25 05:41:39;;;;;;;8.90;5.72;;;;;;;19.45;83.51;96397.95;1648397;85;20958;-79
2021/06/25 05:44:05;;;;;;;6.45;5.00;;;;;;;19.45;83.25;96398.75;1663365;85;20940;-80
2021/06/25 05:46:30;;;;;;;8.73;5.62;;;;;;;19.49;83.75;96397.75;1664423;85;21266;-79
2021/06/25 05:48:56;;;;;;;8.30;6.92;;;;;;;19.53;83.42;96396.78;1667831;85;20953;-80
2021/06/25 05:51:22;;;;;;;8.08;6.20;;;;;;;19.54;83.02;96392.62;1669118;85;20941;-80
2021/06/25 05:53:48;;;;;;;9.53;7.12;;;;;;;19.59;83.17;96395.33;1669176;85;21298;-80
2021/06/25 05:56:13;;;;;;;8.35;7.08;;;;;;;19.60;82.98;96399.56;1645708;85;20959;-80
2021/06/25 05:58:39;;;;;;;11.50;7.92;;;;;;;19.63;83.22;96407.51;1666035;85;20934;-79
2021/06/25 06:01:05;;;;;;;10.38;7.55;;;;;;;19.64;82.68;96404.63;1653099;85;21314;-81
2021/06/25 06:03:30;;;;;;;10.03;8.40;;;;;;;19.65;82.81;96408.06;1664949;85;20947;-80
2021/06/25 06:05:57;;;;;;;8.58;7.67;;;;;;;19.71;82.88;96409.77;1666814;85;21035;-80
2021/06/25 06:08:22;;;;;;;8.75;7.87;;;;;;;19.74;82.85;96417.20;1664575;85;21245;-80
2021/06/25 06:10:48;;;;;;;7.95;7.17;;;;;;;19.74;82.85;96419.83;1649474;86;20951;-80
2021/06/25 06:13:14;;;;;;;8.85;7.25;;;;;;;19.72;82.64;96424.03;1664190;85;20945;-80
2021/06/25 06:15:40;;;;;;;9.03;6.75;;;;;;;19.74;82.79;96420.63;1640228;86;20938;-80
2021/06/25 06:18:06;;;;;;;11.30;8.10;;;;;;;19.70;82.48;96423.98;1655973;85;20966;-80
2021/06/25 06:20:32;;;;;;;10.13;7.55;;;;;;;19.67;82.37;96421.80;1668383;85;21005;-80
2021/06/25 06:31:22;;;;;;;12.23;10.80;;;;;;;19.19;82.31;96448.84;1634575;86;21298;-80
2021/06/25 06:33:55;;;;;;;11.65;10.23;;;;;;;18.97;82.36;96461.05;1663912;85;20961;-80
2021/06/25 06:36:43;;;;;;;14.15;10.88;;;;;;;18.85;82.48;96460.27;1667931;86;20976;-80
2021/06/25 06:39:09;;;;;;;13.80;11.00;;;;;;;18.75;82.71;96457.44;1668675;86;21313;-79
2021/06/25 06:41:36;;;;;;;10.88;9.65;;;;;;;18.74;83.14;96469.00;1668715;85;20932;-80
2021/06/25 06:44:02;;;;;;;10.78;8.93;;;;;;;18.73;83.18;96466.08;1646728;85;20966;-80
2021/06/25 06:46:28;;;;;;;11.05;8.58;;;;;;;18.71;82.98;96466.80;1639409;86;21006;-80
2021/06/25 06:48:53;;;;;;;11.35;8.30;;;;;;;18.73;83.04;96466.88;1668402;85;21015;-79
2021/06/25 06:51:20;;;;;;;10.48;8.45;;;;;;;18.80;83.04;96468.87;1653872;85;21217;-80
2021/06/25 06:53:46;;;;;;;10.58;7.92;;;;;;;18.86;82.80;96473.19;1666527;85;20984;-80
2021/06/25 06:56:15;;;;;;;10.75;8.93;;;;;;;18.99;83.32;96472.15;1655963;84;21256;-79
2021/06/25 06:58:40;;;;;;;11.43;8.40;;;;;;;19.08;83.02;96473.40;1650865;85;20988;-80
2021/06/25 07:01:07;;;;;;;11.80;8.33;;;;;;;19.15;82.76;96466.67;1666285;85;20993;-80
2021/06/25 07:03:33;;;;;;;10.63;7.42;;;;;;;19.26;82.42;96463.21;1663905;85;20986;-80
2021/06/25 07:05:59;;;;;;;10.78;7.40;;;;;;;19.37;82.07;96465.53;1671105;84;20938;-80
2021/06/25 07:08:25;;;;;;;8.88;6.85;;;;;;;19.45;81.92;96465.14;1671018;84;21985;-80
2021/06/25 07:10:51;;;;;;;8.63;7.40;;;;;;;19.60;82.11;96468.09;1656381;84;21316;-80
2021/06/25 07:13:16;;;;;;;10.68;7.47;;;;;;;19.68;81.23;96473.48;1674334;84;21048;-80
2021/06/25 07:15:42;;;;;;;7.97;6.97;;;;;;;19.71;80.56;96468.56;1671082;86;20921;-80
2021/06/25 07:18:08;;;;;;;8.95;7.03;;;;;;;19.81;80.78;96473.72;1675771;84;20967;-80
2021/06/25 07:20:34;;;;;;;11.03;6.10;;;;;;;19.91;80.69;96476.53;1712615;82;20917;-79
2021/06/25 07:23:00;;;;;;;7.95;5.60;;;;;;;19.95;80.56;96483.73;1685224;83;20958;-80
2021/06/25 07:25:26;;;;;;;10.90;5.67;;;;;;;20.00;80.17;96487.76;1647650;85;21382;-80
2021/06/25 07:27:52;;;;;;;9.43;6.25;;;;;;;20.01;79.87;96485.92;1680177;84;21067;-80
2021/06/25 07:30:18;;;;;;;10.23;6.45;;;;;;;20.01;79.15;96493.83;1663497;85;20989;-80
2021/06/25 07:32:45;;;;;;;6.90;5.92;;;;;;;20.00;79.52;96497.51;1676648;84;21020;-80
2021/06/25 07:35:11;;;;;;;6.37;5.53;;;;;;;20.06;80.12;96499.21;1682402;85;20928;-80
2021/06/25 07:37:36;;;;;;;9.45;6.72;;;;;;;20.18;79.91;96498.62;1682755;84;20913;-80
2021/06/25 07:40:04;;;;;;;9.78;8.48;;;;;;;20.23;79.64;96493.95;1680228;84;20972;-80
2021/06/25 07:42:30;;;;;;;8.90;8.03;;;;;;;20.18;78.95;96498.62;1668999;85;20922;-80
2021/06/25 07:44:56;;;;;;;8.63;7.33;;;;;;;20.11;79.02;96497.97;1656504;84;20990;-80
2021/06/25 07:47:21;;;;;;;9.70;7.42;;;;;;;20.10;79.61;96500.33;1667466;84;21017;-79
2021/06/25 07:49:47;;;;;;;8.70;6.87;;;;;;;20.08;79.00;96503.73;1669956;84;20980;-80
2021/06/25 07:52:13;;;;;;;8.90;7.42;;;;;;;19.99;79.22;96507.78;1690881;83;20953;-79
2021/06/25 07:54:39;;;;;;;10.50;8.00;;;;;;;19.89;79.07;96506.30;1664911;84;20975;-80
2021/06/25 07:57:06;;;;;;;10.40;7.80;;;;;;;19.80;78.86;96508.51;1669445;83;20966;-80
2021/06/25 07:59:31;;;;;;;10.68;7.53;;;;;;;19.78;79.64;96506.62;1688478;83;21263;-80
2021/06/25 08:01:59;;;;;;;8.10;6.87;;;;;;;19.83;79.48;96513.83;1654681;86;21011;-80
2021/06/25 08:04:27;;;;;;;9.68;7.22;;;;;;;19.88;80.41;96512.61;1676600;84;21066;-80
2021/06/25 08:06:52;;;;;;;8.10;6.75;;;;;;;19.90;80.18;96498.67;1683734;84;21120;-79
2021/06/25 08:09:18;;;;;;;7.92;7.20;;;;;;;19.95;80.25;96496.91;1676921;84;21005;-80
2021/06/25 08:11:44;;;;;;;9.55;6.45;;;;;;;20.05;80.43;96487.06;1679026;85;21339;-80
2021/06/25 08:14:09;;;;;;;7.60;5.67;;;;;;;20.21;80.85;96472.28;1675060;84;21013;-80
2021/06/25 08:16:35;;;;;;;11.93;7.35;;;;;;;20.33;80.63;96472.45;1680092;84;20954;-80
2021/06/25 08:19:01;;;;;;;11.70;8.90;;;;;;;20.44;80.00;96475.29;1640651;84;20993;-80
2021/06/25 08:21:29;;;;;;;9.33;8.08;;;;;;;20.50;79.58;96475.62;1677161;84;20952;-80
2021/06/25 08:23:55;;;;;;;9.78;8.03;;;;;;;20.58;79.61;96467.31;1674431;84;21003;-80
2021/06/25 08:26:21;;;;;;;11.93;8.35;;;;;;;20.65;79.60;96469.25;1666392;84;20931;-80
2021/06/25 08:28:47;;;;;;;11.22;9.23;;;;;;;20.75;79.81;96479.97;1664742;84;21551;-80
2021/06/25 08:31:14;;;;;;;9.40;7.85;;;;;;;20.84;79.87;96480.36;1678104;84;21024;-80
2021/06/25 08:33:41;;;;;;;14.60;9.68;;;;;;;20.95;79.39;96477.59;1645908;86;20969;-80
2021/06/25 08:36:07;;;;;;;11.50;10.32;;;;;;;21.09;78.72;96481.98;1687025;84;20960;-80
2021/06/25 08:38:33;;;;;;;12.15;10.25;;;;;;;21.16;78.01;96485.78;1676313;85;21019;-80
2021/06/25 08:41:00;;;;;;;13.05;10.35;;;;;;;21.23;77.96;96478.46;1662591;85;20984;-80
2021/06/25 08:43:26;;;;;;;13.48;10.75;;;;;;;21.26;77.81;96488.04;1679512;84;21007;-80
2021/06/25 08:45:52;;;;;;;14.35;10.90;;;;;;;21.37;77.80;96486.33;1663120;85;21041;-79
2021/06/25 08:48:17;;;;;;;14.78;11.12;;;;;;;21.42;77.53;96489.02;1651436;84;21004;-80
2021/06/25 08:50:52;;;;;;;14.15;10.88;;;;;;;21.51;77.20;96494.16;1668969;84;21015;-81
2021/06/25 08:53:18;;;;;;;12.20;10.35;;;;;;;21.55;76.74;96499.73;1635738;84;20986;-80
2021/06/25 08:55:44;;;;;;;10.60;9.50;;;;;;;21.58;77.10;96503.20;1647569;84;20975;-80
2021/06/25 08:58:20;;;;;;;10.48;9.38;;;;;;;21.52;77.49;96498.39;1680147;84;20947;-80
2021/06/25 09:00:46;;;;;;;14.00;11.20;;;;;;;21.48;77.29;96503.91;1657246;84;21043;-80
2021/06/25 09:03:27;;;;;;;11.70;10.08;;;;;;;21.36;76.72;96509.84;1687234;84;21345;-80
2021/06/25 09:05:55;;;;;;;11.22;9.95;;;;;;;21.27;76.82;96512.63;1660943;84;20989;-80
2021/06/25 09:08:26;;;;;;;14.00;12.60;;;;;;;21.14;77.63;96515.07;1643279;86;21346;-80
2021/06/25 09:10:55;;;;;;;15.03;13.08;;;;;;;20.96;77.76;96513.52;1664225;84;21005;-80
2021/06/25 09:13:19;;;;;;;19.48;15.45;;;;;;;20.86;78.07;96515.24;1673809;84;21003;-80
2021/06/25 09:15:45;;;;;;;20.20;17.17;;;;;;;20.63;77.95;96514.38;1671042;84;20928;-80
2021/06/25 09:18:12;;;;;;;18.98;16.97;;;;;;;20.49;78.41;96512.31;1673713;85;21022;-80
2021/06/25 09:20:50;;;;;;;20.97;17.98;;;;;;;20.36;78.68;96516.86;1674026;85;20916;-80
2021/06/25 09:23:36;;;;;;;25.82;20.23;;;;;;;20.21;79.07;96517.93;1673584;84;21288;-80
2021/06/25 09:26:09;;;;;;;24.70;19.57;;;;;;;20.03;79.36;96518.95;1633233;84;20964;-80
2021/06/25 09:28:44;;;;;;;22.75;20.08;;;;;;;19.89;79.97;96524.24;1674062;84;20940;-80
2021/06/25 09:31:18;;;;;;;22.20;18.23;;;;;;;19.82;80.30;96524.89;1673217;84;20900;-80
2021/06/25 09:33:50;;;;;;;20.40;17.48;;;;;;;19.77;80.61;96530.88;1659404;86;20965;-80
2021/06/25 09:36:26;;;;;;;22.17;19.15;;;;;;;19.65;80.79;96524.84;1670914;86;21024;-79
2021/06/25 09:39:06;;;;;;;21.80;18.12;;;;;;;19.55;80.94;96539.69;1673724;84;21213;-80
2021/06/25 09:41:33;;;;;;;21.02;18.67;;;;;;;19.43;81.47;96537.05;1673660;84;21352;-80
2021/06/25 09:44:06;;;;;;;22.35;19.45;;;;;;;19.34;81.63;96540.55;1654622;84;20962;-80
2021/06/25 09:46:35;;;;;;;22.50;19.87;;;;;;;19.26;81.75;96540.13;1661572;84;21309;-80
2021/06/25 09:49:07;;;;;;;24.35;20.77;;;;;;;19.18;82.77;96544.70;1668087;84;21338;-80
2021/06/25 09:51:34;;;;;;;21.37;19.07;;;;;;;19.10;82.32;96542.95;1674014;84;20912;-80
2021/06/25 09:54:06;;;;;;;22.22;19.27;;;;;;;19.08;82.61;96545.82;1673734;84;20929;-79
2021/06/25 09:56:36;;;;;;;22.62;19.32;;;;;;;19.05;82.98;96550.24;1673858;84;21010;-80
2021/06/25 10:01:49;;;;;;;30.30;23.18;;;;;;;19.07;83.36;96558.70;1673828;84;20995;-80
2021/06/25 10:04:14;;;;;;;27.37;24.37;;;;;;;19.07;83.53;96559.22;1653471;85;20985;-80
2021/06/25 10:06:41;;;;;;;48.02;37.95;;;;;;;19.13;83.76;96566.19;1638955;86;20995;-80
2021/06/25 10:09:07;;;;;;;36.58;30.25;;;;;;;19.12;83.58;96564.59;1631973;86;21337;-80
2021/06/25 10:11:33;;;;;;;23.95;21.42;;;;;;;19.07;83.71;96573.19;1659277;86;21064;-80
2021/06/25 10:14:01;;;;;;;24.35;21.80;;;;;;;19.00;83.65;96578.27;1656953;86;21326;-80
2021/06/25 10:16:27;;;;;;;25.52;22.80;;;;;;;18.87;83.81;96578.81;1615870;87;21106;-80
2021/06/25 10:18:55;;;;;;;23.62;21.00;;;;;;;18.85;84.10;96586.11;1649105;86;21349;-79
2021/06/25 10:21:26;;;;;;;24.10;21.15;;;;;;;18.85;84.23;96580.84;1659101;86;21047;-80
2021/06/25 10:24:03;;;;;;;24.27;20.40;;;;;;;18.87;84.35;96583.25;1659471;86;20950;-80
2021/06/25 10:26:29;;;;;;;23.83;21.35;;;;;;;18.89;84.44;96589.11;1658723;86;21031;-80
2021/06/25 10:28:54;;;;;;;112.55;86.20;;;;;;;18.85;84.45;96595.84;1611805;86;20984;-80
2021/06/25 10:31:22;;;;;;;121.45;90.80;;;;;;;18.82;84.68;96594.98;1665867;85;21372;-80
2021/06/25 10:33:50;;;;;;;98.17;71.00;;;;;;;18.82;84.92;96598.42;1651419;86;21022;-80
2021/06/25 10:36:18;;;;;;;70.70;54.35;;;;;;;18.88;84.99;96598.05;1666484;85;20982;-80
2021/06/25 10:38:46;;;;;;;39.95;34.23;;;;;;;18.87;84.87;96601.67;1666954;85;20948;-80
2021/06/25 10:41:14;;;;;;;53.28;47.85;;;;;;;18.85;84.95;96597.16;1665311;85;20976;-80
2021/06/25 10:43:49;;;;;;;29.02;26.07;;;;;;;18.82;84.79;96600.25;1664625;85;20958;-80
2021/06/25 10:46:34;;;;;;;27.27;24.02;;;;;;;18.81;84.94;96609.19;1658020;86;21028;-80
2021/06/25 10:49:15;;;;;;;22.50;20.10;;;;;;;18.87;85.29;96605.62;1666908;85;21012;-80
2021/06/25 10:51:45;;;;;;;23.92;20.72;;;;;;;18.92;84.97;96605.77;1658960;85;20912;-80
2021/06/25 10:54:19;;;;;;;23.95;21.35;;;;;;;18.91;85.08;96608.63;1668977;85;21103;-79
2021/06/25 10:56:56;;;;;;;22.15;19.87;;;;;;;18.94;85.27;96607.66;1664775;86;21309;-80
2021/06/25 10:59:26;;;;;;;23.92;21.42;;;;;;;19.00;85.36;96609.36;1668375;85;20980;-80
2021/06/25 11:02:06;;;;;;;24.15;20.43;;;;;;;19.06;85.78;96611.09;1662090;85;21050;-79
2021/06/25 11:04:39;;;;;;;21.90;19.70;;;;;;;19.21;85.89;96609.83;1668552;85;20963;-80
2021/06/25 11:07:16;;;;;;;22.95;19.40;;;;;;;19.34;85.33;96607.73;1676354;85;20987;-79
2021/06/25 11:09:58;;;;;;;20.55;18.23;;;;;;;19.48;84.86;96608.29;1676485;85;20914;-80
2021/06/25 11:12:35;;;;;;;20.40;18.20;;;;;;;19.55;84.95;96605.57;1647597;86;20957;-80
2021/06/25 11:15:09;;;;;;;22.65;20.30;;;;;;;19.74;84.96;96603.05;1677815;84;20905;-80
2021/06/25 11:17:56;;;;;;;22.60;20.15;;;;;;;19.86;84.96;96610.42;1674640;84;20970;-80
2021/06/25 11:20:39;;;;;;;25.45;22.82;;;;;;;19.98;84.70;96609.84;1671620;84;20946;-80
2021/06/25 11:23:12;;;;;;;30.52;25.75;;;;;;;19.95;84.36;96608.99;1668828;84;20941;-79
2021/06/25 11:25:46;;;;;;;21.87;19.60;;;;;;;19.99;84.27;96608.80;1654806;84;21010;-80
2021/06/25 11:28:37;;;;;;;24.72;22.02;;;;;;;20.05;83.27;96599.96;1685193;84;20963;-80
2021/06/25 11:31:08;;;;;;;32.37;28.97;;;;;;;20.06;83.66;96604.72;1685030;84;20903;-80
2021/06/25 11:33:50;;;;;;;41.58;36.95;;;;;;;20.06;83.30;96609.99;1685578;85;21024;-80
2021/06/25 11:36:21;;;;;;;36.53;32.63;;;;;;;19.99;83.31;96606.16;1684522;84;20971;-80
2021/06/25 11:39:14;;;;;;;36.30;31.37;;;;;;;19.96;82.96;96606.64;1685437;84;21272;-80
2021/06/25 11:41:57;;;;;;;36.30;32.40;;;;;;;19.95;83.09;96609.52;1674981;85;20956;-80
2021/06/25 11:44:38;;;;;;;39.63;34.67;;;;;;;19.85;82.74;96621.17;1656366;85;21279;-80